This is the latest recevied weather packets stored in our database for station/object KJ4HF. If no packets are shown the sender has not sent any weather packets the latest 10 day(s).
| Time | Temp. | Humidity | Pressure | Rain* | Wind** | Luminosity | Snow |
|---|---|---|---|---|---|---|---|
| 1778221543 | 8.89° C | 97% | 1014.6 hPa | 0 mm | - | 0 W/m² | - |
| 1778220956 | 9.44° C | 97% | 1014.7 hPa | 0 mm | - | 0 W/m² | - |
| 1778217943 | 9.44° C | 97% | 1014.7 hPa | 0 mm | - | 0 W/m² | - |
| 1778217642 | 10° C | 97% | 1014.7 hPa | 0 mm | - | 0 W/m² | - |
| 1778213442 | 10.56° C | 97% | 1014.1 hPa | 0 mm | - | 0 W/m² | - |
| 1778211342 | 10.56° C | 97% | 1014.2 hPa | 0 mm | - | 0 W/m² | - |
| 1778208352 | 11.11° C | 97% | 1013.8 hPa | 0 mm | - | 0 W/m² | - |
| 1778205653 | 11.67° C | 96% | 1013.1 hPa | 0 mm | - | 0 W/m² | - |
| 1778204146 | 11.67° C | 96% | 1012.8 hPa | 0 mm | - | 0 W/m² | - |
| 1778202642 | 12.22° C | 95% | 1012.1 hPa | 0 mm | - | 0 W/m² | - |
| 1778201150 | 12.78° C | 95% | 1011.8 hPa | 0 mm | - | 0 W/m² | - |
| 1778199643 | 13.33° C | 94% | 1011.4 hPa | 0 mm | - | 0 W/m² | - |
| 1778194851 | 14.44° C | 92% | 1010.7 hPa | 0.25 mm | - | 28 W/m² | - |
| 1778192742 | 14.44° C | 91% | 1009.9 hPa | 0.25 mm | - | 91 W/m² | - |
| 1778192151 | 14.44° C | 88% | 1009.7 hPa | 0 mm | - | 37 W/m² | - |
| 1778188243 | 16.67° C | 86% | 1009.3 hPa | 0 mm | - | 647 W/m² | - |
| 1778185856 | 16.67° C | 86% | 1009.2 hPa | 0 mm | - | 158 W/m² | - |
| 1778185244 | 17.22° C | 85% | 1008.9 hPa | 0 mm | - | 167 W/m² | - |
| 1778183443 | 21.11° C | 83% | 1007.7 hPa | 0 mm | - | 352 W/m² | - |
| 1778176245 | 20° C | 93% | 1008.8 hPa | 0 mm | - | 385 W/m² | - |
| 1778174154 | 20.56° C | 90% | 1009.5 hPa | 0 mm | - | 476 W/m² | - |
| 1778172356 | 20° C | 95% | 1009.4 hPa | 0 mm | - | 313 W/m² | - |
| 1778170842 | 19.44° C | 92% | 1009.2 hPa | 0 mm | - | 221 W/m² | - |
| 1778169041 | 18.89° C | 96% | 1008.9 hPa | 0.25 mm | - | 232 W/m² | - |
| 1778168759 | 18.89° C | 96% | 1008.8 hPa | 0.51 mm | - | 160 W/m² | - |
* Rain latest hour (hover to see other rain measurements)
** Current wind speed in m/s (hover to see current wind gust speed)